Appleton, Wisconsin
Current Conditions -  °F | °C
As of 2:15 AM on Thursday 27 Nov 2014 (Local Time) from KATW Reporting Station
Overcast Overcast  
Wind Chill: -10°   Ceiling: 2300
Heat Index: -5°   Visibility: 10mi
Dew Point: -6°   Wind: 8mph
Humidity: 93%   Direction: 320°NW
Pressure: 30.22"   Gusts: NA
Location:  44.26°N, 88.42°W
Report Text: KATW 270815Z AUTO 32007KT 10SM OVC023 M05/M06 A3022 RMK AO2
Loading
Personal Weather Stations






























Interactive Weather Map New forecast layout! Learn more

10-Day Weather Forecast

Advertisements
Track Severe Weather on mobile